Time;durP1;ratioP1;P1;durP2;ratioP2;P2;SDS_P1;SDS_P2;PMS_P1;PMS_P2;Temp;Humidity;BMP_temperature;BMP_pressure;BME280_temperature;BME280_humidity;BME280_pressure;Samples;Min_cycle;Max_cycle;Signal;HPM_P1;HPM_P2
2022/12/06 00:00:45;;;;;;;16.80;14.27;;;;;;;4.46;100.00;101975.19;5012170;28;20025;-77
2022/12/06 00:03:10;;;;;;;19.80;14.88;;;;;;;4.45;100.00;101976.06;5011874;28;20520;-77
2022/12/06 00:05:36;;;;;;;15.77;14.18;;;;;;;4.44;100.00;101974.38;5029902;28;20026;-77
2022/12/06 00:08:01;;;;;;;17.60;14.18;;;;;;;4.43;100.00;101970.91;5010592;28;20539;-77
2022/12/06 00:10:27;;;;;;;15.30;13.63;;;;;;;4.43;100.00;101973.53;5010764;28;20025;-77
2022/12/06 00:12:52;;;;;;;16.45;13.55;;;;;;;4.47;100.00;101974.28;5026852;28;20099;-77
2022/12/06 00:15:18;;;;;;;19.23;13.90;;;;;;;4.43;100.00;101972.66;5007900;28;20037;-77
2022/12/06 00:17:43;;;;;;;15.60;14.00;;;;;;;4.45;100.00;101976.94;4992492;28;20036;-78
2022/12/06 00:20:09;;;;;;;16.63;13.70;;;;;;;4.45;100.00;101976.94;5013160;28;20119;-76
2022/12/06 00:22:34;;;;;;;15.57;13.90;;;;;;;4.46;100.00;101969.97;5010199;28;20025;-76
2022/12/06 00:25:00;;;;;;;15.75;14.13;;;;;;;4.47;100.00;101976.88;5027654;28;20064;-77
2022/12/06 00:27:25;;;;;;;15.18;13.32;;;;;;;4.45;100.00;101971.72;5012545;28;20017;-77
2022/12/06 00:29:50;;;;;;;14.82;12.80;;;;;;;4.46;100.00;101973.44;5026502;28;20029;-77
2022/12/06 00:32:16;;;;;;;15.15;13.65;;;;;;;4.45;100.00;101969.13;5008785;28;20068;-77
2022/12/06 00:34:41;;;;;;;15.85;13.98;;;;;;;4.45;100.00;101963.91;5012648;28;20117;-76
2022/12/06 00:37:06;;;;;;;15.55;13.73;;;;;;;4.47;100.00;101969.91;5010513;28;20021;-76
2022/12/06 00:39:32;;;;;;;15.20;13.60;;;;;;;4.47;100.00;101969.91;5029193;28;20075;-76
2022/12/06 00:41:57;;;;;;;15.00;13.40;;;;;;;4.46;100.00;101973.44;5028780;28;20432;-77
2022/12/06 00:44:23;;;;;;;15.32;13.73;;;;;;;4.44;100.00;101974.38;5028232;28;20017;-79
2022/12/06 00:46:48;;;;;;;14.20;12.88;;;;;;;4.46;100.00;101968.22;5024864;28;20148;-77
2022/12/06 00:49:13;;;;;;;14.98;13.38;;;;;;;4.42;100.00;101965.75;5028833;28;20044;-77
2022/12/06 00:51:39;;;;;;;14.77;13.13;;;;;;;4.45;100.00;101973.47;5028397;28;20025;-77
2022/12/06 00:54:06;;;;;;;14.80;13.02;;;;;;;4.43;100.00;101970.91;5011347;28;20037;-77
2022/12/06 00:56:33;;;;;;;14.88;12.77;;;;;;;4.45;100.00;101970.88;5010671;28;20037;-77
2022/12/06 00:58:58;;;;;;;15.32;13.38;;;;;;;4.43;100.00;101973.53;5011380;28;20048;-77
2022/12/06 01:01:29;;;;;;;13.93;12.52;;;;;;;4.44;100.00;101976.97;5028594;28;20025;-79
2022/12/06 01:03:57;;;;;;;14.60;13.02;;;;;;;4.44;100.00;101974.38;5022925;28;20036;-79
2022/12/06 01:06:26;;;;;;;14.23;12.73;;;;;;;4.43;100.00;101972.66;5028105;28;20045;-77
2022/12/06 01:08:56;;;;;;;14.07;12.77;;;;;;;4.42;100.00;101971.81;5029375;28;20025;-77
2022/12/06 01:11:23;;;;;;;14.27;12.77;;;;;;;4.43;100.00;101972.66;5027053;28;20029;-77
2022/12/06 01:13:49;;;;;;;14.25;12.55;;;;;;;4.43;100.00;101970.06;5029097;28;20053;-77
2022/12/06 01:16:18;;;;;;;13.85;12.50;;;;;;;4.43;100.00;101970.91;5011268;28;20026;-77
2022/12/06 01:18:44;;;;;;;13.70;12.30;;;;;;;4.43;100.00;101972.66;5029812;28;20075;-77
2022/12/06 01:21:13;;;;;;;13.55;12.13;;;;;;;4.43;100.00;101967.47;5018641;28;20108;-77
2022/12/06 01:23:39;;;;;;;14.30;12.20;;;;;;;4.43;100.00;101972.66;5011604;28;20026;-77
2022/12/06 01:26:06;;;;;;;13.85;12.35;;;;;;;4.43;100.00;101967.47;4994355;28;20028;-77
2022/12/06 01:28:31;;;;;;;14.43;12.57;;;;;;;4.45;100.00;101973.47;5012635;28;20034;-76
2022/12/06 01:30:57;;;;;;;14.65;12.50;;;;;;;4.42;100.00;101971.81;5012889;28;20482;-76
2022/12/06 01:33:22;;;;;;;14.30;12.80;;;;;;;4.44;100.00;101974.38;5011264;28;20247;-78
2022/12/06 01:35:48;;;;;;;15.38;12.70;;;;;;;4.44;100.00;101976.97;4995188;28;20065;-77
2022/12/06 01:38:13;;;;;;;15.38;12.30;;;;;;;4.43;100.00;101972.66;5023842;28;20029;-77
2022/12/06 01:40:41;;;;;;;14.10;12.70;;;;;;;4.43;100.00;101973.53;5031342;28;20501;-76
2022/12/06 01:43:44;;;;;;;14.40;12.98;;;;;;;4.47;100.00;101977.72;5032002;28;20033;-77
2022/12/06 01:46:26;;;;;;;18.35;13.38;;;;;;;4.47;100.00;101974.28;5032081;28;20052;-77
2022/12/06 01:49:07;;;;;;;14.33;12.83;;;;;;;4.47;100.00;101975.13;5014900;28;20025;-77
2022/12/06 01:51:34;;;;;;;15.20;12.63;;;;;;;4.45;100.00;101966.50;5014638;28;20478;-77
2022/12/06 01:54:04;;;;;;;14.57;13.15;;;;;;;4.50;100.00;101968.97;5029021;28;20072;-77
2022/12/06 01:56:30;;;;;;;14.90;13.35;;;;;;;4.47;100.00;101971.66;5012557;28;20080;-77
2022/12/06 01:58:57;;;;;;;14.63;13.18;;;;;;;4.45;100.00;101960.44;4995398;28;20398;-77
2022/12/06 02:01:25;;;;;;;14.15;12.43;;;;;;;4.43;100.00;101963.09;4994012;28;20079;-77
2022/12/06 02:03:54;;;;;;;15.50;13.38;;;;;;;4.42;100.00;101970.97;5012813;28;20029;-77
2022/12/06 02:06:20;;;;;;;15.52;13.40;;;;;;;4.47;100.00;101959.50;4994704;28;20475;-77
2022/12/06 02:08:46;;;;;;;13.73;12.25;;;;;;;4.42;100.00;101968.34;5010478;28;20157;-77
2022/12/06 02:11:11;;;;;;;14.75;12.27;;;;;;;4.41;100.00;101970.09;4998691;28;20659;-79
2022/12/06 02:13:38;;;;;;;13.52;12.10;;;;;;;4.45;100.00;101960.44;5032013;28;20052;-79
2022/12/06 02:16:38;;;;;;;13.55;12.15;;;;;;;4.48;100.00;101966.41;5031441;28;20021;-77
2022/12/06 02:19:28;;;;;;;14.23;11.63;;;;;;;4.45;100.00;101965.66;5014214;28;20053;-77
2022/12/06 02:21:53;;;;;;;12.40;11.10;;;;;;;4.49;100.00;101970.72;5031830;28;20018;-77
2022/12/06 02:24:41;;;;;;;13.93;10.82;;;;;;;4.47;100.00;101974.28;5031454;28;20533;-77
2022/12/06 02:27:19;;;;;;;13.27;11.75;;;;;;;4.45;100.00;101965.66;5022821;28;20108;-77
2022/12/06 02:30:07;;;;;;;12.15;10.82;;;;;;;4.45;100.00;101960.44;5013313;28;20026;-77
2022/12/06 02:32:46;;;;;;;11.98;10.60;;;;;;;4.44;100.00;101959.59;5031262;28;20029;-77
2022/12/06 02:35:25;;;;;;;12.32;10.10;;;;;;;4.45;100.00;101961.28;5031045;28;20542;-77
2022/12/06 02:38:21;;;;;;;12.75;10.90;;;;;;;4.43;100.00;101957.03;5030831;28;20168;-77
2022/12/06 02:40:59;;;;;;;12.40;10.57;;;;;;;4.43;100.00;101954.44;5031367;28;20025;-77
2022/12/06 02:43:30;;;;;;;13.15;10.70;;;;;;;4.42;100.00;101956.19;5030168;28;20029;-79
2022/12/06 02:45:59;;;;;;;12.82;10.50;;;;;;;4.42;100.00;101957.94;5024408;28;20034;-77
2022/12/06 02:48:25;;;;;;;13.68;10.52;;;;;;;4.41;100.00;101957.09;5010914;28;20068;-77
2022/12/06 02:51:00;;;;;;;12.55;10.45;;;;;;;4.43;100.00;101957.03;5011034;28;20427;-77
2022/12/06 02:53:28;;;;;;;13.45;10.63;;;;;;;4.38;100.00;101950.19;5010992;28;20064;-77
2022/12/06 02:55:55;;;;;;;13.63;10.60;;;;;;;4.39;100.00;101945.81;5011507;28;20072;-77
2022/12/06 02:58:20;;;;;;;11.85;10.05;;;;;;;4.42;100.00;101952.72;5010067;28;20037;-77
2022/12/06 03:00:52;;;;;;;11.07;9.77;;;;;;;4.39;100.00;101951.88;5010090;28;20033;-77
2022/12/06 03:03:35;;;;;;;12.70;10.65;;;;;;;4.44;100.00;101948.31;5014657;28;20407;-77
2022/12/06 03:06:01;;;;;;;12.35;10.20;;;;;;;4.37;100.00;101947.63;5011230;28;20068;-77
2022/12/06 03:08:55;;;;;;;14.90;10.50;;;;;;;4.38;100.00;101944.97;5009506;28;20069;-77
2022/12/06 03:11:22;;;;;;;13.48;10.57;;;;;;;4.36;100.00;101945.91;5004414;28;20133;-77
2022/12/06 03:13:54;;;;;;;13.48;10.90;;;;;;;4.36;100.00;101951.97;5009843;28;20486;-77
2022/12/06 03:16:31;;;;;;;12.15;10.68;;;;;;;4.38;100.00;101950.19;5010875;28;20030;-78
2022/12/06 03:19:01;;;;;;;13.48;9.93;;;;;;;4.37;100.00;101952.84;5012957;28;20082;-77
2022/12/06 03:21:35;;;;;;;11.85;10.60;;;;;;;4.34;100.00;101953.78;5021928;28;20026;-77
2022/12/06 03:24:03;;;;;;;13.20;10.10;;;;;;;4.35;100.00;101958.09;5011208;28;20098;-77
2022/12/06 03:26:31;;;;;;;15.88;11.00;;;;;;;4.37;100.00;101956.28;5010419;28;20489;-77
2022/12/06 03:29:00;;;;;;;16.90;11.93;;;;;;;4.35;100.00;101959.84;5011387;28;20371;-77
2022/12/06 03:31:29;;;;;;;15.18;11.65;;;;;;;4.36;100.00;101959.78;4992950;28;20394;-77
2022/12/06 03:34:15;;;;;;;14.93;11.70;;;;;;;4.40;100.00;101958.84;5010561;28;20026;-77
2022/12/06 03:36:46;;;;;;;16.67;12.00;;;;;;;4.38;100.00;101954.53;5030595;28;20040;-77
2022/12/06 03:39:13;;;;;;;16.48;11.98;;;;;;;4.36;100.00;101953.72;4996134;28;20080;-78
2022/12/06 03:41:47;;;;;;;19.27;13.00;;;;;;;4.38;100.00;101959.75;5009497;28;20030;-77
2022/12/06 03:44:12;;;;;;;17.13;13.30;;;;;;;4.38;100.00;101951.94;5008803;28;20487;-78
2022/12/06 03:46:46;;;;;;;21.92;13.48;;;;;;;4.36;100.00;101959.78;5009719;28;20375;-77
2022/12/06 03:49:16;;;;;;;16.65;12.43;;;;;;;4.36;100.00;101956.34;5008778;28;20434;-77
2022/12/06 03:51:43;;;;;;;17.23;13.40;;;;;;;4.36;100.00;101951.13;4992411;28;20049;-77
2022/12/06 03:54:09;;;;;;;20.40;13.65;;;;;;;4.32;100.00;101945.16;5009420;28;20030;-77
2022/12/06 03:56:36;;;;;;;18.20;13.38;;;;;;;4.36;100.00;101954.59;5014102;28;20523;-77
2022/12/06 03:59:04;;;;;;;21.10;13.77;;;;;;;4.36;100.00;101961.56;5010070;28;20108;-77
2022/12/06 04:01:29;;;;;;;21.77;14.77;;;;;;;4.34;100.00;101959.00;5008100;28;20018;-77
2022/12/06 04:03:55;;;;;;;20.00;13.95;;;;;;;4.35;100.00;101950.28;5010196;28;20029;-77
2022/12/06 04:06:20;;;;;;;23.67;14.45;;;;;;;4.35;100.00;101950.28;4991805;28;20022;-77
2022/12/06 04:08:45;;;;;;;20.35;14.30;;;;;;;4.35;100.00;101947.66;5015990;28;20037;-77
2022/12/06 04:11:11;;;;;;;27.83;14.65;;;;;;;4.33;100.00;101951.22;5029324;28;20029;-77
2022/12/06 04:13:36;;;;;;;19.77;13.85;;;;;;;4.35;100.00;101950.28;5025949;28;20052;-77
2022/12/06 04:18:09;;;;;;;22.42;14.80;;;;;;;4.33;100.00;101949.47;5022016;28;20545;-77
2022/12/06 04:18:50;;;;;;;20.80;14.50;;;;;;;4.29;100.00;101944.41;5024030;28;20064;-77
2022/12/06 04:23:57;;;;;;;20.25;14.45;;;;;;;4.31;100.00;101951.28;5029561;28;20061;-77
2022/12/06 04:26:23;;;;;;;20.40;14.13;;;;;;;4.32;100.00;101950.38;5028090;28;20402;-77
2022/12/06 04:39:47;;;;;;;20.55;14.88;;;;;;;4.34;100.00;101950.31;5030101;28;20040;-78
2022/12/06 04:44:57;;;;;;;23.35;15.13;;;;;;;4.34;100.00;101948.56;5029845;28;20039;-78
2022/12/06 04:47:23;;;;;;;21.15;14.85;;;;;;;4.36;100.00;101954.59;5027777;28;20100;-78
2022/12/06 04:49:48;;;;;;;26.42;15.70;;;;;;;4.33;100.00;101951.22;5010820;28;20025;-78
2022/12/06 04:52:14;;;;;;;24.27;14.65;;;;;;;4.35;100.00;101944.22;5008082;28;20133;-78
2022/12/06 04:54:40;;;;;;;25.58;14.52;;;;;;;4.33;100.00;101952.06;5014983;28;20464;-77
2022/12/06 04:57:09;;;;;;;21.67;14.45;;;;;;;4.33;100.00;101952.06;5014852;28;20028;-77
2022/12/06 04:59:39;;;;;;;24.67;15.48;;;;;;;4.32;100.00;101950.38;5015164;28;20509;-77
2022/12/06 05:02:06;;;;;;;21.00;14.45;;;;;;;4.33;100.00;101948.63;5032725;28;20112;-77
2022/12/06 05:04:32;;;;;;;26.08;14.95;;;;;;;4.30;100.00;101946.97;5030330;28;20028;-77
2022/12/06 05:06:57;;;;;;;22.00;14.13;;;;;;;4.32;100.00;101949.53;5005893;28;20025;-77
2022/12/06 05:09:23;;;;;;;27.70;14.23;;;;;;;4.31;100.00;101946.06;5014668;28;20037;-77
2022/12/06 05:11:49;;;;;;;21.35;14.60;;;;;;;4.30;100.00;101944.34;5031780;28;20057;-77
2022/12/06 05:14:14;;;;;;;25.80;14.10;;;;;;;4.28;100.00;101943.56;5032826;28;20112;-77
2022/12/06 05:16:39;;;;;;;22.00;14.25;;;;;;;4.28;100.00;101946.16;5015501;28;20083;-77
2022/12/06 05:19:05;;;;;;;24.98;14.68;;;;;;;4.30;100.00;101946.09;5031917;28;20028;-78
2022/12/06 05:21:30;;;;;;;24.98;14.15;;;;;;;4.32;100.00;101945.16;5026190;28;20042;-78
2022/12/06 05:23:56;;;;;;;21.25;14.07;;;;;;;4.32;100.00;101947.78;5009582;28;20474;-78
2022/12/06 05:26:25;;;;;;;23.33;14.82;;;;;;;4.27;100.00;101941.84;5031250;28;20804;-77
2022/12/06 05:28:51;;;;;;;21.85;14.00;;;;;;;4.31;100.00;101946.06;5015368;28;20022;-77
2022/12/06 05:31:17;;;;;;;25.55;13.95;;;;;;;4.29;100.00;101947.00;5031876;28;20083;-77
2022/12/06 05:33:42;;;;;;;23.67;13.23;;;;;;;4.29;100.00;101947.00;5024477;28;20034;-77
2022/12/06 05:36:09;;;;;;;20.70;12.50;;;;;;;4.27;100.00;101941.84;5032525;28;20462;-77
2022/12/06 05:38:35;;;;;;;22.88;13.65;;;;;;;4.28;100.00;101948.75;5030925;28;20033;-78
2022/12/06 05:41:05;;;;;;;19.77;12.25;;;;;;;4.27;100.00;101939.25;5013792;28;20383;-77
2022/12/06 05:43:30;;;;;;;23.55;12.82;;;;;;;4.25;100.00;101938.44;5013127;28;20194;-77
2022/12/06 05:45:56;;;;;;;24.08;12.38;;;;;;;4.25;100.00;101938.44;5026218;28;20090;-77
2022/12/06 05:48:22;;;;;;;21.10;12.50;;;;;;;4.23;100.00;101940.25;5032077;28;20021;-77
2022/12/06 05:50:48;;;;;;;19.98;12.07;;;;;;;4.24;100.00;101941.94;5032135;28;20021;-77
2022/12/06 05:53:14;;;;;;;20.67;12.38;;;;;;;4.21;100.00;101943.78;5013021;28;20680;-77
2022/12/06 05:55:40;;;;;;;20.45;12.90;;;;;;;4.21;100.00;101936.81;5028554;28;20552;-78
2022/12/06 05:58:06;;;;;;;18.90;11.35;;;;;;;4.23;100.00;101944.59;5031464;28;20038;-78
2022/12/06 06:00:31;;;;;;;20.00;11.70;;;;;;;4.20;100.00;101940.34;5013293;28;20029;-78
2022/12/06 06:02:56;;;;;;;18.30;11.05;;;;;;;4.20;100.00;101942.09;5032021;28;20049;-77
2022/12/06 06:05:22;;;;;;;17.95;11.73;;;;;;;4.19;100.00;101943.84;5030175;28;20033;-77
2022/12/06 06:07:47;;;;;;;17.52;11.32;;;;;;;4.18;100.00;101947.34;5031317;28;20056;-77
2022/12/06 06:10:13;;;;;;;22.08;11.52;;;;;;;4.14;100.00;101948.34;5030877;28;20082;-77
2022/12/06 06:12:38;;;;;;;20.90;11.85;;;;;;;4.17;100.00;101939.56;5023397;28;20085;-77
2022/12/06 06:15:06;;;;;;;18.63;12.18;;;;;;;4.14;100.00;101945.72;4993406;28;20548;-77
2022/12/06 06:17:32;;;;;;;19.42;11.25;;;;;;;4.15;100.00;101943.97;5006911;28;20044;-77
2022/12/06 06:19:57;;;;;;;20.23;11.52;;;;;;;4.15;100.00;101939.63;5031719;28;20029;-77
2022/12/06 06:22:23;;;;;;;25.27;12.32;;;;;;;4.14;100.00;101939.66;5030371;28;20608;-78
2022/12/06 06:24:48;;;;;;;19.58;11.60;;;;;;;4.14;100.00;101943.13;5013730;28;20104;-78
2022/12/06 06:27:14;;;;;;;22.77;12.23;;;;;;;4.14;100.00;101945.72;5030614;28;20033;-77
2022/12/06 06:29:40;;;;;;;20.83;12.82;;;;;;;4.11;100.00;101951.03;5016211;28;20401;-77
2022/12/06 06:32:05;;;;;;;20.55;12.25;;;;;;;4.08;100.00;101945.91;5013808;28;20359;-78
2022/12/06 06:34:30;;;;;;;19.10;12.63;;;;;;;4.11;100.00;101948.41;5031026;28;20042;-77
2022/12/06 06:36:55;;;;;;;18.63;11.75;;;;;;;4.06;100.00;101938.16;5010016;28;20030;-77
2022/12/06 06:39:21;;;;;;;23.73;12.25;;;;;;;4.08;100.00;101945.91;5007773;28;20033;-77
2022/12/06 06:41:46;;;;;;;19.63;12.27;;;;;;;4.02;100.00;101951.31;5013526;28;20037;-77
2022/12/06 06:44:12;;;;;;;21.58;12.45;;;;;;;4.03;100.00;101950.41;5028645;28;20043;-77
2022/12/06 06:46:38;;;;;;;18.20;11.77;;;;;;;4.04;100.00;101952.09;5026777;28;20044;-77
2022/12/06 06:49:04;;;;;;;18.10;11.73;;;;;;;3.99;100.00;101956.56;5030423;28;20029;-77
2022/12/06 06:51:30;;;;;;;17.25;11.63;;;;;;;3.96;100.00;101943.63;5013188;28;20025;-77
2022/12/06 06:53:55;;;;;;;20.13;12.30;;;;;;;3.92;100.00;101944.63;5029670;28;20041;-77
2022/12/06 06:56:21;;;;;;;17.98;12.18;;;;;;;3.85;100.00;101943.09;5010310;28;20034;-77
2022/12/06 06:58:46;;;;;;;19.15;11.70;;;;;;;3.81;100.00;101941.50;4994212;28;20018;-75
2022/12/06 07:01:20;;;;;;;27.55;12.27;;;;;;;3.77;100.00;101944.19;5011380;28;20026;-79
2022/12/06 07:03:46;;;;;;;16.45;11.55;;;;;;;3.73;100.00;101939.97;5009224;28;20022;-76
2022/12/06 07:06:12;;;;;;;19.85;12.27;;;;;;;3.61;100.00;101935.09;5011322;28;20025;-77
2022/12/06 07:08:40;;;;;;;20.40;11.82;;;;;;;3.57;100.00;101943.84;5011308;28;20104;-77
2022/12/06 07:11:05;;;;;;;19.73;11.23;;;;;;;3.54;100.00;101949.16;5013041;28;20405;-77
2022/12/06 07:13:31;;;;;;;19.45;11.20;;;;;;;3.50;100.00;101947.53;5010458;28;20104;-77
2022/12/06 07:15:57;;;;;;;20.55;11.68;;;;;;;3.47;100.00;101939.81;5011110;28;20045;-77
2022/12/06 07:18:24;;;;;;;20.15;12.38;;;;;;;3.38;100.00;101946.13;5008227;28;20087;-77
2022/12/06 07:20:57;;;;;;;20.10;11.07;;;;;;;3.40;100.00;101948.69;5028332;28;20041;-77
2022/12/06 07:23:23;;;;;;;19.30;11.70;;;;;;;3.34;100.00;101949.69;5028611;28;20490;-77
2022/12/06 07:26:08;;;;;;;21.50;12.88;;;;;;;3.30;100.00;101961.06;5029938;28;20033;-77
2022/12/06 07:28:35;;;;;;;16.58;11.13;;;;;;;3.27;100.00;101945.56;5013272;28;20108;-77
2022/12/06 07:31:14;;;;;;;15.00;11.13;;;;;;;3.35;100.00;101955.75;5010226;28;20036;-77
2022/12/06 07:33:41;;;;;;;17.63;11.75;;;;;;;3.32;100.00;101954.09;5023400;28;20040;-77
2022/12/06 07:36:08;;;;;;;17.98;11.40;;;;;;;3.35;100.00;101950.56;5012607;28;20029;-77
2022/12/06 07:38:33;;;;;;;19.33;11.50;;;;;;;3.38;100.00;101950.47;5011733;28;20036;-77
2022/12/06 07:46:49;;;;;;;16.52;11.48;;;;;;;3.44;100.00;101950.31;5010344;28;20069;-77
2022/12/06 07:49:16;;;;;;;16.92;12.40;;;;;;;3.46;100.00;101966.72;4992959;28;20057;-77
2022/12/06 07:51:45;;;;;;;19.40;12.15;;;;;;;3.48;100.00;101959.72;5010563;28;20537;-77
2022/12/06 07:54:11;;;;;;;20.10;12.77;;;;;;;3.49;100.00;101961.44;5009820;28;20037;-77
2022/12/06 07:56:36;;;;;;;17.83;11.80;;;;;;;3.51;100.00;101964.84;5010568;28;20057;-79
2022/12/06 07:59:03;;;;;;;17.80;11.63;;;;;;;3.53;100.00;101970.00;5010096;28;20053;-77
2022/12/06 08:01:28;;;;;;;16.88;11.23;;;;;;;3.53;100.00;101973.47;5010930;28;20052;-78
2022/12/06 08:03:55;;;;;;;20.35;11.27;;;;;;;3.53;100.00;101965.66;5029404;28;20021;-78
2022/12/06 08:06:21;;;;;;;17.27;10.73;;;;;;;3.55;100.00;101971.66;5028954;28;20028;-78
2022/12/06 08:08:46;;;;;;;17.10;10.70;;;;;;;3.53;100.00;101972.59;5030230;28;20029;-78
2022/12/06 08:11:12;;;;;;;16.98;11.00;;;;;;;3.55;100.00;101978.63;5029749;28;20025;-78
2022/12/06 08:13:37;;;;;;;17.13;10.35;;;;;;;3.56;100.00;101975.97;5029337;28;20121;-79
2022/12/06 08:16:07;;;;;;;16.70;10.38;;;;;;;3.53;100.00;101978.66;5029941;28;20375;-79
2022/12/06 08:18:33;;;;;;;14.70;9.95;;;;;;;3.57;100.00;101969.88;5029982;28;20033;-79
2022/12/06 08:20:58;;;;;;;16.27;10.10;;;;;;;3.59;100.00;101978.50;4996727;28;20474;-79
2022/12/06 08:23:24;;;;;;;14.13;10.00;;;;;;;3.65;100.00;101972.31;5025509;28;20509;-78
2022/12/06 08:25:57;;;;;;;16.67;9.93;;;;;;;3.64;100.00;101981.84;5011930;28;20017;-78
2022/12/06 08:28:23;;;;;;;15.90;9.93;;;;;;;3.68;100.00;101973.06;5027840;28;20051;-78
2022/12/06 08:30:48;;;;;;;14.10;9.85;;;;;;;3.72;100.00;101973.84;5029026;28;20051;-78
2022/12/06 08:33:14;;;;;;;16.00;10.20;;;;;;;3.73;100.00;101976.41;5010798;28;20613;-78
2022/12/06 08:35:39;;;;;;;16.02;9.95;;;;;;;3.74;100.00;101972.03;5025287;28;20042;-78
2022/12/06 08:38:04;;;;;;;17.83;10.60;;;;;;;3.76;100.00;101971.09;5018539;28;20499;-78
2022/12/06 08:40:30;;;;;;;14.20;9.73;;;;;;;3.80;100.00;101971.88;5029512;28;20034;-78
2022/12/06 08:42:55;;;;;;;15.57;9.70;;;;;;;3.80;100.00;101981.44;5028983;28;20038;-78
2022/12/06 08:45:20;;;;;;;15.15;9.38;;;;;;;3.77;100.00;101978.00;5011533;28;20029;-78
2022/12/06 08:47:46;;;;;;;12.75;9.10;;;;;;;3.82;100.00;101982.25;5011771;28;20618;-78
2022/12/06 08:50:11;;;;;;;14.70;9.13;;;;;;;3.73;100.00;101976.41;5010772;28;20029;-78
2022/12/06 08:52:36;;;;;;;16.30;9.25;;;;;;;3.71;100.00;101972.97;5020807;28;20061;-78
2022/12/06 08:55:05;;;;;;;12.38;8.23;;;;;;;3.68;100.00;101973.06;5018952;28;20037;-78
2022/12/06 08:57:32;;;;;;;16.58;9.65;;;;;;;3.66;100.00;101982.66;5027572;28;20283;-78
2022/12/06 08:59:57;;;;;;;12.75;9.00;;;;;;;3.61;100.00;101981.09;5029159;28;20021;-78
2022/12/06 09:02:22;;;;;;;17.38;9.85;;;;;;;3.63;100.00;101987.09;5027817;28;20167;-78
2022/12/06 09:04:51;;;;;;;12.85;9.38;;;;;;;3.63;100.00;101985.34;5011288;28;20389;-79
2022/12/06 09:07:18;;;;;;;13.93;9.48;;;;;;;3.65;100.00;101993.97;5028867;28;20029;-78
2022/12/06 09:09:46;;;;;;;16.92;9.95;;;;;;;3.67;100.00;101986.13;5010029;28;20022;-78
2022/12/06 09:12:12;;;;;;;16.23;10.40;;;;;;;3.69;100.00;101995.59;5021100;28;20037;-79
2022/12/06 09:14:37;;;;;;;14.75;10.43;;;;;;;3.78;100.00;101995.34;5029662;28;20610;-76
2022/12/06 09:17:03;;;;;;;15.77;10.80;;;;;;;3.82;100.00;101996.09;5028903;28;20044;-77
2022/12/06 09:19:28;;;;;;;17.88;10.48;;;;;;;3.86;100.00;101996.88;5014837;28;20221;-77
2022/12/06 09:21:53;;;;;;;18.13;11.05;;;;;;;3.92;100.00;101997.56;5028465;28;20017;-77
2022/12/06 09:24:19;;;;;;;16.75;10.93;;;;;;;3.96;100.00;102000.91;5026988;28;20152;-77
2022/12/06 09:26:45;;;;;;;14.48;10.50;;;;;;;3.95;100.00;102001.81;5020841;28;20068;-77
2022/12/06 09:29:11;;;;;;;16.52;10.32;;;;;;;4.02;100.00;101998.19;5009586;28;20105;-77
2022/12/06 09:31:39;;;;;;;15.63;10.27;;;;;;;4.02;100.00;101992.97;5008487;28;20022;-77
2022/12/06 09:34:07;;;;;;;15.27;9.98;;;;;;;4.07;100.00;101996.28;5026308;28;20022;-77
2022/12/06 09:36:33;;;;;;;16.52;10.38;;;;;;;4.08;100.00;101996.25;5028280;28;20103;-76
2022/12/06 09:39:00;;;;;;;17.20;10.40;;;;;;;4.09;100.00;101995.34;5028295;28;20033;-76
2022/12/06 09:41:32;;;;;;;13.95;9.52;;;;;;;4.17;100.00;101997.72;5013091;28;20048;-78
2022/12/06 09:44:06;;;;;;;16.90;9.70;;;;;;;4.24;100.00;101999.25;5026029;28;20677;-78
2022/12/06 09:47:00;;;;;;;16.60;9.77;;;;;;;4.27;100.00;102001.75;5031288;28;20493;-78
2022/12/06 09:49:44;;;;;;;21.05;9.82;;;;;;;4.33;100.00;101995.50;5031270;28;20037;-77
2022/12/06 09:52:43;;;;;;;13.60;9.13;;;;;;;4.33;100.00;101991.16;5013891;28;20121;-77
2022/12/06 09:55:42;;;;;;;14.02;9.27;;;;;;;4.36;100.00;102004.09;5032233;28;20057;-77
2022/12/06 09:58:31;;;;;;;16.40;9.65;;;;;;;4.45;100.00;101991.72;5031599;28;20045;-77
2022/12/06 10:01:19;;;;;;;15.45;8.98;;;;;;;4.52;100.00;101993.22;5006578;28;20033;-78
2022/12/06 10:03:47;;;;;;;13.00;8.48;;;;;;;4.59;100.00;101999.97;5012713;28;20112;-78
2022/12/06 10:06:17;;;;;;;13.27;8.85;;;;;;;4.65;100.00;102000.63;5013036;28;20032;-77
2022/12/06 10:08:48;;;;;;;12.85;8.05;;;;;;;4.72;100.00;102001.28;5012057;28;22641;-77
2022/12/06 10:11:14;;;;;;;10.75;8.35;;;;;;;4.81;100.00;101993.19;5020787;28;20091;-77
2022/12/06 10:14:06;;;;;;;12.00;8.75;;;;;;;4.97;100.00;101991.78;5030931;28;20514;-77
2022/12/06 10:16:41;;;;;;;13.95;8.18;;;;;;;5.05;100.00;101999.34;5013868;28;20033;-77
2022/12/06 10:19:17;;;;;;;11.90;7.90;;;;;;;5.10;100.00;101987.00;5029561;28;20108;-77
2022/12/06 10:22:39;;;;;;;15.90;8.23;;;;;;;5.22;100.00;101986.63;5031121;28;20063;-77
2022/12/06 10:25:15;;;;;;;10.30;6.38;;;;;;;5.24;100.00;101983.97;4970745;28;20073;-78
2022/12/06 10:28:25;;;;;;;11.90;6.50;;;;;;;5.33;100.00;101983.66;5020037;28;20099;-77
2022/12/06 10:30:54;;;;;;;9.30;7.15;;;;;;;5.38;100.00;101986.09;5013526;28;20029;-77
2022/12/06 10:33:32;;;;;;;10.50;6.22;;;;;;;5.45;100.00;101983.22;5030961;28;20030;-77
2022/12/06 10:36:03;;;;;;;11.98;7.10;;;;;;;5.45;100.00;101983.22;5030712;28;20096;-77
2022/12/06 10:38:43;;;;;;;8.80;6.00;;;;;;;5.49;100.00;101983.97;5013365;28;20052;-77
2022/12/06 10:41:21;;;;;;;8.32;5.70;;;;;;;5.47;100.00;101985.78;5030529;28;20780;-77
2022/12/06 10:44:05;;;;;;;8.48;5.40;;;;;;;5.43;100.00;101985.03;5016357;28;20461;-77
2022/12/06 10:47:05;;;;;;;9.07;5.90;;;;;;;5.39;100.00;101987.81;5011363;28;20030;-78
2022/12/06 10:49:51;;;;;;;9.43;5.93;;;;;;;5.33;100.00;101992.34;5023439;28;20021;-77
2022/12/06 10:52:39;;;;;;;8.80;6.13;;;;;;;5.36;100.00;101988.75;5030750;28;20052;-77
2022/12/06 10:55:07;;;;;;;10.93;5.82;;;;;;;5.32;100.00;101989.78;5029949;28;20408;-77
2022/12/06 10:57:46;;;;;;;11.70;5.55;;;;;;;5.32;100.00;101987.16;5030243;28;20037;-78
2022/12/06 11:00:16;;;;;;;13.07;5.05;;;;;;;5.28;100.00;101991.63;5019040;28;20394;-77
2022/12/06 11:03:05;;;;;;;8.18;5.20;;;;;;;5.31;100.00;101994.16;5025912;28;20056;-77
2022/12/06 11:05:47;;;;;;;8.25;4.80;;;;;;;5.27;100.00;101992.53;5029396;28;20033;-79
2022/12/06 11:08:22;;;;;;;9.13;5.00;;;;;;;5.27;100.00;101994.31;4988452;28;20030;-78
2022/12/06 11:10:49;;;;;;;7.50;4.93;;;;;;;5.28;100.00;101989.03;5009212;28;20600;-77
2022/12/06 11:13:39;;;;;;;8.18;4.40;;;;;;;5.34;100.00;101987.97;5015228;28;20046;-77
2022/12/06 11:16:12;;;;;;;10.50;4.30;;;;;;;5.32;100.00;101987.16;5014051;28;20132;-77
2022/12/06 11:18:39;;;;;;;6.43;4.00;;;;;;;5.38;100.00;101980.88;5030962;28;20389;-77
2022/12/06 11:21:28;;;;;;;11.45;4.55;;;;;;;5.45;100.00;101982.38;5029671;28;20083;-77
2022/12/06 11:24:04;;;;;;;7.72;4.18;;;;;;;5.56;100.00;101983.69;5030314;28;20028;-78
2022/12/06 11:26:43;;;;;;;5.50;3.80;;;;;;;5.66;100.00;101982.50;5029900;28;20394;-78
2022/12/06 11:29:13;;;;;;;13.45;4.38;;;;;;;5.78;100.00;101965.53;5030258;28;20022;-78
2022/12/06 11:31:45;;;;;;;8.05;4.00;;;;;;;5.76;100.00;101977.78;5011862;28;20036;-78
2022/12/06 11:34:21;;;;;;;6.27;4.30;;;;;;;5.84;100.00;101980.97;5012493;28;20044;-78
2022/12/06 11:36:49;;;;;;;7.32;3.90;;;;;;;5.95;100.00;101968.41;5030492;28;20413;-78
2022/12/06 11:39:16;;;;;;;5.97;3.60;;;;;;;6.07;100.00;101972.34;5029538;28;20029;-79
2022/12/06 11:41:44;;;;;;;5.55;3.47;;;;;;;6.18;100.00;101964.94;5029542;28;20021;-79
2022/12/06 11:44:21;;;;;;;11.23;3.42;;;;;;;6.34;100.00;101959.13;5011807;28;20103;-79
2022/12/06 11:46:57;;;;;;;7.43;3.33;;;;;;;6.44;100.00;101963.97;5012655;28;20017;-79